Time;durP1;ratioP1;P1;durP2;ratioP2;P2;SDS_P1;SDS_P2;PMS_P1;PMS_P2;Temp;Humidity;BMP_temperature;BMP_pressure;BME280_temperature;BME280_humidity;BME280_pressure;Samples;Min_cycle;Max_cycle;Signal;HPM_P1;HPM_P2
2021/06/19 00:01:09;;;;;;;5.95;1.58;;;;;;;;;;5041357;28;20021;-36
2021/06/19 00:03:36;;;;;;;4.85;1.75;;;;;;;;;;5040010;28;20036;-35
2021/06/19 00:06:03;;;;;;;8.10;1.63;;;;;;;;;;5032985;28;20026;-41
2021/06/19 00:08:30;;;;;;;7.68;1.95;;;;;;;;;;5030099;28;20025;-39
2021/06/19 00:10:58;;;;;;;9.23;3.17;;;;;;;;;;5041940;28;20516;-35
2021/06/19 00:13:25;;;;;;;11.05;2.22;;;;;;;;;;5033602;28;20024;-38
2021/06/19 00:15:52;;;;;;;8.48;1.98;;;;;;;;;;5034881;28;20018;-37
2021/06/19 00:18:20;;;;;;;17.50;2.67;;;;;;;;;;5032366;28;20053;-39
2021/06/19 00:20:47;;;;;;;7.85;2.53;;;;;;;;;;5030735;28;20032;-42
2021/06/19 00:23:14;;;;;;;12.43;2.22;;;;;;;;;;5031304;28;20029;-43
2021/06/19 00:25:41;;;;;;;12.25;2.28;;;;;;;;;;5033579;28;20033;-37
2021/06/19 00:28:08;;;;;;;12.55;2.40;;;;;;;;;;5050263;28;20056;-44
2021/06/19 00:30:35;;;;;;;14.07;2.00;;;;;;;;;;5045413;28;20045;-40
2021/06/19 00:33:02;;;;;;;10.45;2.10;;;;;;;;;;5031204;28;20103;-46
2021/06/19 00:35:29;;;;;;;8.10;2.38;;;;;;;;;;5033157;28;20037;-42
2021/06/19 00:37:56;;;;;;;14.35;2.47;;;;;;;;;;5037554;28;20384;-44
2021/06/19 00:40:24;;;;;;;8.90;2.03;;;;;;;;;;5033429;28;20476;-40
2021/06/19 00:42:52;;;;;;;12.00;1.83;;;;;;;;;;5029694;28;20028;-43
2021/06/19 00:45:19;;;;;;;5.40;1.98;;;;;;;;;;5038809;28;20083;-41
2021/06/19 00:47:46;;;;;;;10.88;2.05;;;;;;;;;;5031025;28;20045;-44
2021/06/19 00:50:14;;;;;;;11.50;2.10;;;;;;;;;;5045661;28;20056;-41
2021/06/19 00:52:41;;;;;;;6.68;2.20;;;;;;;;;;5014533;28;20512;-42
2021/06/19 00:55:08;;;;;;;10.60;2.10;;;;;;;;;;5041943;28;20013;-40
2021/06/19 00:57:36;;;;;;;7.18;1.85;;;;;;;;;;5049284;28;20068;-42
2021/06/19 01:00:05;;;;;;;8.98;2.20;;;;;;;;;;5050758;28;20020;-42
2021/06/19 01:02:32;;;;;;;8.82;2.25;;;;;;;;;;5048898;28;20443;-40
2021/06/19 01:05:03;;;;;;;7.20;1.95;;;;;;;;;;5050791;28;20051;-43
2021/06/19 01:07:30;;;;;;;9.65;2.00;;;;;;;;;;5044332;28;20664;-45
2021/06/19 01:09:57;;;;;;;4.82;1.63;;;;;;;;;;5040281;28;20032;-44
2021/06/19 01:12:24;;;;;;;8.63;1.67;;;;;;;;;;5049297;28;20025;-40
2021/06/19 01:14:51;;;;;;;8.93;1.90;;;;;;;;;;5049508;28;20380;-40
2021/06/19 01:17:19;;;;;;;8.57;1.92;;;;;;;;;;5050122;28;20021;-39
2021/06/19 01:20:06;;;;;;;8.15;2.00;;;;;;;;;;5048154;28;20100;-38
2021/06/19 01:22:34;;;;;;;7.30;1.80;;;;;;;;;;5050371;28;20052;-42
2021/06/19 01:25:03;;;;;;;7.85;1.92;;;;;;;;;;5050293;28;20017;-38
2021/06/19 01:27:31;;;;;;;9.73;1.75;;;;;;;;;;5050365;28;20500;-42
2021/06/19 01:29:59;;;;;;;6.72;1.80;;;;;;;;;;5041046;28;20653;-37
2021/06/19 01:32:31;;;;;;;6.32;1.95;;;;;;;;;;5048643;28;20049;-34
2021/06/19 01:34:58;;;;;;;6.72;1.30;;;;;;;;;;5035947;28;20025;-36
2021/06/19 01:37:27;;;;;;;6.90;2.13;;;;;;;;;;5031122;28;20136;-41
2021/06/19 01:40:08;;;;;;;7.75;1.67;;;;;;;;;;5043089;28;20036;-34
2021/06/19 01:42:38;;;;;;;6.72;1.80;;;;;;;;;;5035843;28;20028;-35
2021/06/19 01:45:07;;;;;;;11.05;1.80;;;;;;;;;;5034677;28;20026;-43
2021/06/19 01:47:34;;;;;;;7.47;2.10;;;;;;;;;;5054145;28;20057;-36
2021/06/19 01:50:01;;;;;;;4.55;1.60;;;;;;;;;;5054410;28;20388;-39
2021/06/19 01:52:29;;;;;;;4.47;1.50;;;;;;;;;;5050709;28;20434;-34
2021/06/19 01:54:56;;;;;;;7.10;1.40;;;;;;;;;;5050023;28;20013;-34
2021/06/19 01:57:23;;;;;;;7.57;1.85;;;;;;;;;;5047432;28;20198;-37
2021/06/19 01:59:59;;;;;;;8.73;1.80;;;;;;;;;;5037079;28;20044;-34
2021/06/19 02:02:26;;;;;;;4.50;1.25;;;;;;;;;;5053766;28;20129;-37
2021/06/19 02:04:53;;;;;;;8.98;1.50;;;;;;;;;;5054356;28;20048;-32
2021/06/19 02:07:20;;;;;;;5.10;1.10;;;;;;;;;;5051710;28;20029;-38
2021/06/19 02:09:47;;;;;;;10.75;1.35;;;;;;;;;;5053821;28;20472;-31
2021/06/19 02:12:15;;;;;;;5.03;1.50;;;;;;;;;;5053957;28;20036;-35
2021/06/19 02:14:43;;;;;;;4.28;1.10;;;;;;;;;;5052382;28;20404;-32
2021/06/19 02:17:10;;;;;;;7.05;1.55;;;;;;;;;;5052979;28;20061;-37
2021/06/19 02:19:38;;;;;;;3.75;1.40;;;;;;;;;;5051593;28;20424;-37
2021/06/19 02:22:05;;;;;;;6.65;1.70;;;;;;;;;;5053633;28;20021;-32
2021/06/19 02:24:33;;;;;;;4.85;1.00;;;;;;;;;;5054056;28;20096;-42
2021/06/19 02:27:08;;;;;;;3.83;1.17;;;;;;;;;;5036258;28;20112;-32
2021/06/19 02:29:35;;;;;;;6.10;1.55;;;;;;;;;;5047872;28;20017;-43
2021/06/19 02:32:03;;;;;;;5.43;1.50;;;;;;;;;;5040161;28;20021;-41
2021/06/19 02:34:30;;;;;;;4.38;1.42;;;;;;;;;;5039889;28;20033;-33
2021/06/19 02:36:57;;;;;;;3.97;1.30;;;;;;;;;;5034215;28;20037;-34
2021/06/19 02:39:24;;;;;;;2.15;1.10;;;;;;;;;;5037485;28;20496;-40
2021/06/19 02:41:51;;;;;;;3.80;1.10;;;;;;;;;;5017072;28;20491;-33
2021/06/19 02:44:18;;;;;;;7.85;1.15;;;;;;;;;;5033302;28;20075;-39
2021/06/19 02:46:45;;;;;;;7.13;1.13;;;;;;;;;;5033391;28;20060;-34
2021/06/19 02:49:13;;;;;;;4.60;1.40;;;;;;;;;;5035138;28;20018;-39
2021/06/19 02:51:40;;;;;;;4.90;1.30;;;;;;;;;;5018090;28;20501;-35
2021/06/19 02:54:07;;;;;;;5.70;0.90;;;;;;;;;;5035370;28;20381;-33
2021/06/19 02:56:34;;;;;;;3.42;1.30;;;;;;;;;;5036416;28;20053;-36
2021/06/19 02:59:01;;;;;;;3.53;1.20;;;;;;;;;;5036577;28;20032;-40
2021/06/19 03:01:28;;;;;;;4.07;1.10;;;;;;;;;;5033242;28;20083;-36
2021/06/19 03:03:55;;;;;;;4.70;1.10;;;;;;;;;;5015433;28;20030;-38
2021/06/19 03:06:23;;;;;;;3.53;1.20;;;;;;;;;;5031238;28;20385;-37
2021/06/19 03:08:50;;;;;;;3.33;1.00;;;;;;;;;;5034168;28;20059;-40
2021/06/19 03:11:17;;;;;;;1.55;0.85;;;;;;;;;;5035486;28;20144;-32
2021/06/19 03:13:44;;;;;;;2.72;1.05;;;;;;;;;;5034295;28;20583;-36
2021/06/19 03:16:12;;;;;;;5.97;1.13;;;;;;;;;;5036249;28;20013;-39
2021/06/19 03:18:39;;;;;;;2.58;1.00;;;;;;;;;;5033988;28;20028;-39
2021/06/19 03:21:06;;;;;;;2.13;1.00;;;;;;;;;;5035343;28;20025;-40
2021/06/19 03:23:34;;;;;;;4.13;1.10;;;;;;;;;;5016470;28;20083;-46
2021/06/19 03:26:01;;;;;;;5.05;0.98;;;;;;;;;;5043849;28;20018;-41
2021/06/19 03:28:28;;;;;;;3.33;1.10;;;;;;;;;;5052182;28;20044;-42
2021/06/19 03:30:55;;;;;;;3.22;0.65;;;;;;;;;;5031566;28;20072;-45
2021/06/19 03:33:22;;;;;;;4.90;1.10;;;;;;;;;;5014728;28;20022;-45
2021/06/19 03:35:49;;;;;;;8.65;1.00;;;;;;;;;;5033755;28;20070;-45
2021/06/19 03:38:16;;;;;;;6.95;0.90;;;;;;;;;;5033721;28;20024;-41
2021/06/19 03:40:43;;;;;;;4.53;1.00;;;;;;;;;;5033644;28;20025;-46
2021/06/19 03:43:10;;;;;;;1.85;0.85;;;;;;;;;;5033904;28;20104;-42
2021/06/19 03:45:38;;;;;;;2.38;0.88;;;;;;;;;;5033724;28;20025;-46
2021/06/19 03:48:06;;;;;;;3.15;0.90;;;;;;;;;;5033686;28;20051;-42
2021/06/19 03:50:33;;;;;;;4.85;1.00;;;;;;;;;;5033768;28;20037;-48
2021/06/19 03:53:01;;;;;;;3.17;0.98;;;;;;;;;;5033610;28;20025;-42
2021/06/19 03:55:28;;;;;;;5.78;1.02;;;;;;;;;;5033464;28;20104;-43
2021/06/19 03:57:56;;;;;;;2.40;0.80;;;;;;;;;;5032959;28;20065;-48
2021/06/19 04:00:23;;;;;;;3.90;0.90;;;;;;;;;;5033678;28;20112;-43
2021/06/19 04:02:51;;;;;;;3.05;1.15;;;;;;;;;;5015663;28;20029;-48
2021/06/19 04:05:18;;;;;;;3.22;0.77;;;;;;;;;;5033544;28;20025;-48
2021/06/19 04:07:46;;;;;;;2.35;0.98;;;;;;;;;;5033479;28;20029;-48
2021/06/19 04:10:14;;;;;;;6.32;0.80;;;;;;;;;;5033221;28;20025;-45
2021/06/19 04:12:41;;;;;;;2.35;0.93;;;;;;;;;;5033284;28;20029;-47
2021/06/19 04:15:09;;;;;;;4.53;0.95;;;;;;;;;;5033532;28;20500;-39
2021/06/19 04:17:36;;;;;;;5.07;0.80;;;;;;;;;;5033221;28;20469;-39
2021/06/19 04:20:05;;;;;;;2.55;0.80;;;;;;;;;;5033099;28;20026;-41
2021/06/19 04:22:32;;;;;;;2.45;1.00;;;;;;;;;;5033303;28;20473;-42
2021/06/19 04:24:59;;;;;;;2.15;0.70;;;;;;;;;;5033230;28;20021;-40
2021/06/19 04:27:26;;;;;;;2.22;0.70;;;;;;;;;;5035942;28;20362;-38
2021/06/19 04:29:54;;;;;;;2.90;0.85;;;;;;;;;;5051258;28;20072;-39
2021/06/19 04:32:21;;;;;;;4.35;0.70;;;;;;;;;;5052379;28;20095;-39
2021/06/19 04:34:48;;;;;;;1.30;0.65;;;;;;;;;;5051859;28;20024;-44
2021/06/19 04:37:16;;;;;;;4.97;0.82;;;;;;;;;;5052237;28;20086;-40
2021/06/19 04:39:56;;;;;;;2.70;0.70;;;;;;;;;;5051673;28;20107;-38
2021/06/19 04:42:25;;;;;;;2.95;0.75;;;;;;;;;;5051848;28;20493;-47
2021/06/19 04:45:05;;;;;;;2.85;0.95;;;;;;;;;;5051814;28;20329;-42
2021/06/19 04:47:33;;;;;;;2.10;0.80;;;;;;;;;;5052145;28;20033;-40
2021/06/19 04:50:01;;;;;;;1.95;0.70;;;;;;;;;;5052255;28;20036;-41
2021/06/19 04:52:30;;;;;;;3.97;1.13;;;;;;;;;;5051694;28;20524;-39
2021/06/19 04:54:57;;;;;;;1.95;0.70;;;;;;;;;;5051915;28;20025;-43
2021/06/19 04:57:24;;;;;;;1.40;0.70;;;;;;;;;;5051789;28;20025;-36
2021/06/19 04:59:51;;;;;;;2.53;0.90;;;;;;;;;;5051919;28;20498;-38
2021/06/19 05:02:18;;;;;;;1.65;0.70;;;;;;;;;;5051729;28;20396;-41
2021/06/19 05:04:45;;;;;;;1.15;0.45;;;;;;;;;;5051954;28;20033;-39
2021/06/19 05:07:12;;;;;;;1.75;0.70;;;;;;;;;;5051264;28;20021;-39
2021/06/19 05:09:40;;;;;;;3.67;0.80;;;;;;;;;;5051776;28;20033;-38
2021/06/19 05:12:08;;;;;;;2.60;0.82;;;;;;;;;;5051250;28;20060;-41
2021/06/19 05:14:36;;;;;;;1.85;0.60;;;;;;;;;;5051594;28;20108;-38
2021/06/19 05:17:03;;;;;;;1.50;0.57;;;;;;;;;;5051416;28;20104;-41
2021/06/19 05:19:31;;;;;;;1.20;0.50;;;;;;;;;;5052022;28;20112;-44
2021/06/19 05:21:58;;;;;;;2.55;0.60;;;;;;;;;;5051700;28;20017;-41
2021/06/19 05:24:25;;;;;;;1.95;0.60;;;;;;;;;;5051071;28;20108;-43
2021/06/19 05:26:52;;;;;;;3.72;0.70;;;;;;;;;;5051646;28;20570;-43
2021/06/19 05:29:19;;;;;;;1.98;0.60;;;;;;;;;;5051266;28;20079;-43
2021/06/19 05:31:47;;;;;;;1.60;0.63;;;;;;;;;;5051683;28;20043;-41
2021/06/19 05:34:14;;;;;;;2.53;0.80;;;;;;;;;;5051186;28;20025;-37
2021/06/19 05:36:41;;;;;;;1.60;0.70;;;;;;;;;;5051692;28;20025;-40
2021/06/19 05:39:08;;;;;;;2.03;0.68;;;;;;;;;;5051229;28;20377;-44
2021/06/19 05:41:38;;;;;;;0.80;0.50;;;;;;;;;;5051667;28;20025;-45
2021/06/19 05:44:09;;;;;;;1.98;0.80;;;;;;;;;;5051040;28;20075;-40
2021/06/19 05:46:39;;;;;;;2.72;0.80;;;;;;;;;;5035048;28;20033;-44
2021/06/19 05:49:06;;;;;;;2.05;0.60;;;;;;;;;;5031697;28;20493;-39
2021/06/19 05:51:34;;;;;;;1.73;0.50;;;;;;;;;;5031524;28;20080;-43
2021/06/19 05:54:01;;;;;;;2.95;0.70;;;;;;;;;;5031402;28;20018;-39
2021/06/19 05:56:28;;;;;;;2.20;0.60;;;;;;;;;;5031103;28;20392;-42
2021/06/19 05:58:55;;;;;;;3.38;0.47;;;;;;;;;;5031936;28;20033;-41
2021/06/19 06:01:22;;;;;;;1.38;0.52;;;;;;;;;;5031195;28;20100;-40
2021/06/19 06:03:49;;;;;;;2.95;0.90;;;;;;;;;;5031599;28;20122;-41
2021/06/19 06:06:17;;;;;;;1.95;0.60;;;;;;;;;;5031009;28;20033;-46
2021/06/19 06:08:44;;;;;;;3.08;0.60;;;;;;;;;;5031463;28;20045;-46
2021/06/19 06:11:12;;;;;;;2.10;0.55;;;;;;;;;;5030887;28;20033;-47
2021/06/19 06:13:39;;;;;;;3.60;0.57;;;;;;;;;;5031398;28;20021;-47
2021/06/19 06:16:06;;;;;;;1.60;0.60;;;;;;;;;;5031187;28;20036;-44
2021/06/19 06:18:33;;;;;;;2.40;0.50;;;;;;;;;;5030799;28;20056;-43
2021/06/19 06:21:01;;;;;;;1.08;0.50;;;;;;;;;;5034092;28;20033;-40
2021/06/19 06:23:29;;;;;;;1.17;0.50;;;;;;;;;;5034403;28;20389;-42
2021/06/19 06:25:56;;;;;;;1.35;0.80;;;;;;;;;;5034313;28;20036;-45
2021/06/19 06:28:23;;;;;;;1.15;0.50;;;;;;;;;;5034501;28;20489;-47
2021/06/19 06:30:50;;;;;;;0.98;0.50;;;;;;;;;;5050589;28;20499;-47
2021/06/19 06:33:20;;;;;;;1.35;0.50;;;;;;;;;;5074382;28;20420;-46
2021/06/19 06:35:47;;;;;;;1.33;0.50;;;;;;;;;;5074314;28;20028;-42
2021/06/19 06:38:14;;;;;;;1.33;0.40;;;;;;;;;;5074614;28;20027;-47
2021/06/19 06:40:41;;;;;;;1.23;0.55;;;;;;;;;;5074056;28;20048;-47
2021/06/19 06:43:08;;;;;;;0.95;0.50;;;;;;;;;;5074615;28;20111;-47
2021/06/19 06:45:35;;;;;;;2.33;0.40;;;;;;;;;;5073979;28;20059;-48
2021/06/19 06:48:02;;;;;;;0.60;0.40;;;;;;;;;;5056216;28;20458;-40
2021/06/19 06:50:29;;;;;;;1.25;0.40;;;;;;;;;;5074125;28;20032;-45
2021/06/19 06:52:56;;;;;;;0.73;0.40;;;;;;;;;;5074517;28;20020;-47
2021/06/19 06:55:23;;;;;;;3.95;0.73;;;;;;;;;;5073577;28;20192;-46
2021/06/19 06:57:51;;;;;;;3.25;0.40;;;;;;;;;;5073917;28;20017;-39
2021/06/19 07:00:18;;;;;;;2.15;0.50;;;;;;;;;;5073736;28;20059;-46
2021/06/19 07:02:45;;;;;;;0.95;0.47;;;;;;;;;;5074323;28;20048;-45
2021/06/19 07:05:12;;;;;;;1.27;0.60;;;;;;;;;;5073950;28;20056;-45
2021/06/19 07:07:40;;;;;;;0.90;0.43;;;;;;;;;;5073443;28;20028;-46
2021/06/19 07:10:08;;;;;;;2.03;0.50;;;;;;;;;;5074035;28;20024;-47
2021/06/19 07:12:36;;;;;;;1.35;0.50;;;;;;;;;;5073511;28;20384;-46
2021/06/19 07:15:06;;;;;;;1.02;0.50;;;;;;;;;;5073995;28;20028;-47
2021/06/19 07:17:33;;;;;;;0.75;0.52;;;;;;;;;;5073390;28;20431;-44
2021/06/19 07:20:02;;;;;;;0.98;0.52;;;;;;;;;;5073742;28;20361;-44
2021/06/19 07:22:29;;;;;;;1.35;0.60;;;;;;;;;;5073147;28;20379;-47
2021/06/19 07:24:57;;;;;;;1.38;0.63;;;;;;;;;;5073908;28;20027;-43
2021/06/19 07:27:24;;;;;;;1.27;0.55;;;;;;;;;;5054460;28;20535;-46
2021/06/19 07:29:51;;;;;;;1.08;0.40;;;;;;;;;;5073679;28;20021;-44
2021/06/19 07:32:18;;;;;;;1.40;0.50;;;;;;;;;;5073319;28;20687;-39
2021/06/19 07:34:45;;;;;;;0.80;0.47;;;;;;;;;;5073366;28;20101;-45
2021/06/19 07:37:12;;;;;;;0.85;0.50;;;;;;;;;;5073452;28;20034;-46
2021/06/19 07:39:39;;;;;;;0.77;0.57;;;;;;;;;;5073155;28;20024;-46
2021/06/19 07:42:06;;;;;;;1.02;0.65;;;;;;;;;;5073083;28;20535;-43
2021/06/19 07:44:33;;;;;;;0.80;0.40;;;;;;;;;;5072850;28;20016;-47
2021/06/19 07:47:00;;;;;;;1.23;0.50;;;;;;;;;;5072397;28;20054;-43
2021/06/19 07:49:27;;;;;;;1.73;0.52;;;;;;;;;;5054276;28;20063;-41
2021/06/19 07:51:54;;;;;;;1.08;0.47;;;;;;;;;;5073106;28;20381;-42
2021/06/19 07:54:21;;;;;;;0.30;0.25;;;;;;;;;;5072887;28;20022;-43
2021/06/19 07:56:48;;;;;;;0.45;0.40;;;;;;;;;;5072998;28;20039;-44
2021/06/19 07:59:16;;;;;;;0.90;0.40;;;;;;;;;;5072857;28;20058;-44
2021/06/19 08:01:43;;;;;;;1.10;0.52;;;;;;;;;;5073137;28;20062;-42
2021/06/19 08:04:10;;;;;;;0.80;0.40;;;;;;;;;;5072832;28;20028;-36
2021/06/19 08:06:37;;;;;;;1.25;0.50;;;;;;;;;;5072629;28;20039;-43
2021/06/19 08:09:04;;;;;;;1.00;0.40;;;;;;;;;;5073088;28;20024;-43
2021/06/19 08:11:31;;;;;;;0.85;0.50;;;;;;;;;;5072134;28;20036;-42
2021/06/19 08:13:58;;;;;;;1.25;0.50;;;;;;;;;;5054815;28;20111;-43
2021/06/19 08:16:27;;;;;;;0.80;0.40;;;;;;;;;;5072176;28;20239;-41
2021/06/19 08:18:54;;;;;;;0.98;0.40;;;;;;;;;;5072847;28;20096;-38
2021/06/19 08:21:21;;;;;;;1.20;0.50;;;;;;;;;;5072116;28;20024;-41
2021/06/19 08:23:48;;;;;;;0.80;0.47;;;;;;;;;;5072640;28;20024;-43
2021/06/19 08:26:15;;;;;;;1.50;0.50;;;;;;;;;;5054211;28;20029;-40
2021/06/19 08:28:42;;;;;;;1.08;0.50;;;;;;;;;;5072536;28;20021;-43
2021/06/19 08:31:09;;;;;;;1.98;0.57;;;;;;;;;;5072088;28;20029;-37
2021/06/19 08:33:36;;;;;;;0.40;0.40;;;;;;;;;;5072357;28;20021;-41
2021/06/19 08:36:12;;;;;;;0.80;0.40;;;;;;;;;;5072312;28;20025;-47
2021/06/19 08:38:41;;;;;;;0.75;0.30;;;;;;;;;;5071942;28;20047;-47
2021/06/19 08:41:09;;;;;;;1.17;0.40;;;;;;;;;;5072454;28;20486;-42
2021/06/19 08:43:43;;;;;;;0.85;0.50;;;;;;;;;;5071207;28;20036;-43
2021/06/19 08:46:10;;;;;;;0.98;0.57;;;;;;;;;;5072269;28;20535;-36
2021/06/19 08:48:38;;;;;;;1.00;0.43;;;;;;;;;;5071531;28;20545;-44
2021/06/19 08:51:06;;;;;;;2.05;0.57;;;;;;;;;;5072246;28;20070;-39
2021/06/19 08:53:36;;;;;;;1.30;0.40;;;;;;;;;;5071807;28;20150;-39
2021/06/19 08:56:03;;;;;;;2.63;0.40;;;;;;;;;;5072119;28;20029;-44
2021/06/19 08:58:30;;;;;;;0.73;0.30;;;;;;;;;;5071245;28;20024;-39
2021/06/19 09:00:57;;;;;;;1.40;0.40;;;;;;;;;;5072065;28;20110;-46
2021/06/19 09:03:25;;;;;;;0.82;0.35;;;;;;;;;;5071799;28;20500;-45
2021/06/19 09:05:53;;;;;;;0.90;0.40;;;;;;;;;;5072156;28;20109;-40
2021/06/19 09:08:21;;;;;;;0.32;0.30;;;;;;;;;;5053518;28;20067;-47
2021/06/19 09:10:48;;;;;;;4.97;0.50;;;;;;;;;;5071917;28;20036;-43
2021/06/19 09:13:19;;;;;;;1.88;0.60;;;;;;;;;;5072040;28;20380;-42
2021/06/19 09:15:48;;;;;;;1.83;0.60;;;;;;;;;;5071555;28;20035;-37
2021/06/19 09:18:16;;;;;;;0.70;0.40;;;;;;;;;;5071922;28;20480;-44
2021/06/19 09:20:52;;;;;;;1.35;0.40;;;;;;;;;;5071802;28;20029;-43
2021/06/19 09:23:33;;;;;;;2.40;0.80;;;;;;;;;;5072019;28;20468;-41
2021/06/19 09:26:08;;;;;;;0.77;0.45;;;;;;;;;;5071425;28;20025;-36
2021/06/19 09:28:54;;;;;;;1.90;0.40;;;;;;;;;;5071562;28;20198;-43
2021/06/19 09:31:36;;;;;;;2.00;0.50;;;;;;;;;;5071215;28;20044;-41
2021/06/19 09:34:08;;;;;;;0.90;0.43;;;;;;;;;;5071795;28;20023;-38
2021/06/19 09:36:39;;;;;;;1.63;0.45;;;;;;;;;;5071386;28;20063;-39
2021/06/19 09:39:07;;;;;;;0.90;0.40;;;;;;;;;;5071583;28;20021;-40
2021/06/19 09:41:35;;;;;;;1.83;0.40;;;;;;;;;;5071209;28;20028;-38
2021/06/19 09:44:02;;;;;;;1.65;0.50;;;;;;;;;;5071741;28;20051;-38
2021/06/19 09:46:29;;;;;;;1.50;0.47;;;;;;;;;;5071141;28;20025;-40
2021/06/19 09:49:08;;;;;;;0.50;0.40;;;;;;;;;;5071404;28;20037;-41
2021/06/19 09:51:35;;;;;;;0.57;0.40;;;;;;;;;;5071006;28;20040;-45
2021/06/19 09:54:08;;;;;;;2.08;0.63;;;;;;;;;;5071775;28;20040;-47
2021/06/19 09:56:54;;;;;;;1.67;0.40;;;;;;;;;;5075338;28;20159;-45
2021/06/19 09:59:24;;;;;;;1.65;0.40;;;;;;;;;;5075302;28;20035;-38
2021/06/19 10:01:51;;;;;;;1.48;0.73;;;;;;;;;;5074730;28;20075;-43
2021/06/19 10:04:23;;;;;;;1.35;0.65;;;;;;;;;;5075207;28;20557;-45
2021/06/19 10:06:51;;;;;;;0.90;0.30;;;;;;;;;;5075097;28;20078;-43
2021/06/19 10:09:18;;;;;;;0.93;0.57;;;;;;;;;;5075502;28;20092;-44
2021/06/19 10:11:47;;;;;;;1.02;0.43;;;;;;;;;;5074962;28;20367;-45
2021/06/19 10:14:18;;;;;;;1.02;0.40;;;;;;;;;;5074660;28;20468;-46
2021/06/19 10:16:50;;;;;;;0.57;0.40;;;;;;;;;;5075005;28;20036;-47
2021/06/19 10:19:19;;;;;;;1.65;0.43;;;;;;;;;;5074226;28;20028;-44
2021/06/19 10:21:47;;;;;;;1.13;0.30;;;;;;;;;;5074717;28;20040;-38
2021/06/19 10:24:14;;;;;;;0.85;0.40;;;;;;;;;;5056285;28;20029;-41
2021/06/19 10:26:41;;;;;;;1.38;0.30;;;;;;;;;;5035070;28;20021;-39
2021/06/19 10:29:10;;;;;;;2.13;0.57;;;;;;;;;;5034497;28;20024;-41
2021/06/19 10:31:42;;;;;;;1.48;0.45;;;;;;;;;;5057451;28;20060;-42
2021/06/19 10:34:19;;;;;;;4.07;0.68;;;;;;;;;;5074315;28;20028;-38
2021/06/19 10:36:47;;;;;;;1.10;0.40;;;;;;;;;;5075037;28;20062;-39
2021/06/19 10:39:30;;;;;;;1.27;0.40;;;;;;;;;;5073978;28;20025;-40
2021/06/19 10:41:57;;;;;;;1.83;0.50;;;;;;;;;;5074565;28;20029;-35
2021/06/19 10:44:42;;;;;;;0.70;0.30;;;;;;;;;;5074239;28;20104;-39
2021/06/19 10:47:09;;;;;;;1.17;0.40;;;;;;;;;;5074444;28;20040;-39
2021/06/19 10:49:37;;;;;;;1.70;0.50;;;;;;;;;;5073868;28;20108;-40
2021/06/19 10:52:22;;;;;;;0.50;0.38;;;;;;;;;;5074286;28;20391;-43
2021/06/19 10:55:07;;;;;;;1.30;0.50;;;;;;;;;;5073793;28;20092;-36
2021/06/19 10:57:46;;;;;;;0.90;0.40;;;;;;;;;;5074433;28;20017;-47
2021/06/19 11:00:30;;;;;;;2.22;0.57;;;;;;;;;;5073635;28;20070;-47
2021/06/19 11:02:58;;;;;;;1.15;0.38;;;;;;;;;;5074181;28;20025;-38
2021/06/19 11:05:52;;;;;;;0.98;0.63;;;;;;;;;;5073407;28;20384;-46
2021/06/19 11:08:19;;;;;;;0.90;0.45;;;;;;;;;;5070889;28;20037;-47
2021/06/19 11:10:49;;;;;;;1.13;0.50;;;;;;;;;;5073356;28;20041;-42
2021/06/19 11:13:28;;;;;;;2.90;1.02;;;;;;;;;;5073919;28;20037;-42
2021/06/19 11:15:56;;;;;;;1.88;0.40;;;;;;;;;;5073582;28;20035;-47
2021/06/19 11:18:41;;;;;;;0.20;0.20;;;;;;;;;;5073961;28;20031;-46
2021/06/19 11:21:09;;;;;;;0.95;0.50;;;;;;;;;;5073231;28;20407;-41
2021/06/19 11:23:54;;;;;;;3.33;0.60;;;;;;;;;;5073937;28;20032;-43
2021/06/19 11:26:40;;;;;;;0.65;0.50;;;;;;;;;;5073363;28;20111;-43
2021/06/19 11:29:25;;;;;;;0.98;0.40;;;;;;;;;;5074143;28;20423;-45
2021/06/19 11:31:52;;;;;;;0.60;0.50;;;;;;;;;;5073050;28;20062;-43
2021/06/19 11:34:37;;;;;;;0.73;0.40;;;;;;;;;;5073743;28;20020;-47
2021/06/19 11:37:04;;;;;;;2.05;0.40;;;;;;;;;;5073250;28;20074;-43
2021/06/19 11:39:35;;;;;;;1.73;0.60;;;;;;;;;;5073650;28;20020;-43
2021/06/19 11:42:03;;;;;;;0.57;0.35;;;;;;;;;;5072769;28;20031;-46
2021/06/19 11:44:33;;;;;;;1.65;0.60;;;;;;;;;;5073744;28;20032;-42
2021/06/19 11:47:02;;;;;;;1.00;0.40;;;;;;;;;;5072979;28;20041;-41
2021/06/19 11:49:31;;;;;;;0.50;0.32;;;;;;;;;;5072991;28;20033;-46
2021/06/19 11:51:58;;;;;;;1.25;0.75;;;;;;;;;;5073298;28;20396;-43
2021/06/19 11:54:26;;;;;;;0.35;0.35;;;;;;;;;;5072908;28;20020;-44
2021/06/19 11:56:56;;;;;;;0.77;0.40;;;;;;;;;;5073226;28;20031;-43
2021/06/19 11:59:26;;;;;;;1.13;0.40;;;;;;;;;;5073139;28;20053;-45
2021/06/19 12:01:53;;;;;;;1.60;0.85;;;;;;;;;;5072858;28;20070;-46
2021/06/19 12:04:22;;;;;;;0.77;0.32;;;;;;;;;;5072560;28;20012;-42
2021/06/19 12:06:53;;;;;;;0.63;0.40;;;;;;;;;;5073247;28;20024;-42
2021/06/19 12:09:21;;;;;;;0.95;0.30;;;;;;;;;;5072717;28;20017;-43
2021/06/19 12:11:49;;;;;;;1.55;0.50;;;;;;;;;;5072736;28;20043;-46
2021/06/19 12:14:17;;;;;;;0.90;0.38;;;;;;;;;;5072223;28;20037;-38
2021/06/19 12:16:45;;;;;;;2.10;0.40;;;;;;;;;;5073072;28;20400;-46
2021/06/19 12:19:12;;;;;;;2.00;0.70;;;;;;;;;;5071865;28;20020;-44
2021/06/19 12:21:40;;;;;;;4.22;0.52;;;;;;;;;;5072467;28;20044;-40
2021/06/19 12:24:46;;;;;;;0.65;0.40;;;;;;;;;;5072114;28;20066;-43
2021/06/19 12:27:17;;;;;;;0.43;0.38;;;;;;;;;;4991208;28;20031;-42
2021/06/19 12:29:44;;;;;;;0.55;0.30;;;;;;;;;;4990766;28;20470;-42
2021/06/19 12:32:22;;;;;;;0.90;0.40;;;;;;;;;;5033037;28;20722;-44
2021/06/19 12:34:49;;;;;;;1.38;0.55;;;;;;;;;;5072103;28;20029;-45
2021/06/19 12:37:17;;;;;;;1.67;0.50;;;;;;;;;;5072812;28;20134;-42
2021/06/19 12:39:47;;;;;;;0.52;0.40;;;;;;;;;;5072530;28;20031;-39
2021/06/19 12:42:31;;;;;;;1.45;0.50;;;;;;;;;;5072388;28;20394;-43
2021/06/19 12:45:24;;;;;;;0.75;0.38;;;;;;;;;;5054718;28;20025;-43
2021/06/19 12:47:52;;;;;;;0.63;0.38;;;;;;;;;;5055988;28;20045;-40
2021/06/19 12:50:20;;;;;;;1.05;0.30;;;;;;;;;;5052039;28;20041;-43
2021/06/19 12:52:59;;;;;;;0.82;0.50;;;;;;;;;;5034025;28;20028;-38
2021/06/19 12:55:27;;;;;;;0.30;0.30;;;;;;;;;;5051750;28;20028;-40
2021/06/19 12:58:04;;;;;;;2.10;0.70;;;;;;;;;;5033640;28;20373;-42
2021/06/19 13:00:53;;;;;;;1.13;0.30;;;;;;;;;;5051570;28;20082;-40
2021/06/19 13:03:24;;;;;;;0.80;0.40;;;;;;;;;;5045485;28;20075;-44
2021/06/19 13:05:51;;;;;;;0.52;0.30;;;;;;;;;;5036238;28;20056;-40
2021/06/19 13:08:19;;;;;;;1.02;0.50;;;;;;;;;;5041830;28;20489;-40
2021/06/19 13:10:46;;;;;;;1.45;0.77;;;;;;;;;;5031536;28;20412;-34
2021/06/19 13:13:14;;;;;;;1.38;0.52;;;;;;;;;;5038895;28;20013;-35
2021/06/19 13:15:58;;;;;;;1.75;0.50;;;;;;;;;;5046014;28;20060;-39
2021/06/19 13:18:25;;;;;;;0.45;0.30;;;;;;;;;;5050998;28;20033;-37
2021/06/19 13:21:02;;;;;;;0.88;0.30;;;;;;;;;;5050369;28;20477;-43
2021/06/19 13:23:30;;;;;;;0.73;0.43;;;;;;;;;;5049265;28;20102;-40
2021/06/19 13:26:03;;;;;;;1.10;0.43;;;;;;;;;;5049990;28;20048;-39
2021/06/19 13:28:30;;;;;;;1.45;0.43;;;;;;;;;;5050675;28;20024;-39
2021/06/19 13:31:13;;;;;;;1.38;0.60;;;;;;;;;;5054092;28;20067;-39
2021/06/19 13:33:49;;;;;;;1.48;0.68;;;;;;;;;;5054289;28;20059;-39
2021/06/19 13:36:19;;;;;;;0.93;0.40;;;;;;;;;;5052601;28;20181;-39
2021/06/19 13:38:57;;;;;;;1.58;0.70;;;;;;;;;;5054726;28;20056;-40
2021/06/19 13:41:27;;;;;;;1.23;0.50;;;;;;;;;;5053618;28;20428;-39
2021/06/19 13:43:54;;;;;;;0.82;0.40;;;;;;;;;;5053583;28;20032;-36
2021/06/19 13:46:21;;;;;;;2.13;0.77;;;;;;;;;;5054982;28;20008;-38
2021/06/19 13:48:49;;;;;;;1.08;0.40;;;;;;;;;;5054979;28;20056;-40
2021/06/19 13:51:16;;;;;;;1.48;0.57;;;;;;;;;;5054814;28;20048;-41
2021/06/19 13:53:44;;;;;;;1.27;0.52;;;;;;;;;;5055030;28;20534;-38
2021/06/19 13:56:11;;;;;;;1.15;0.50;;;;;;;;;;5054053;28;20033;-40
2021/06/19 13:58:38;;;;;;;0.50;0.43;;;;;;;;;;5054701;28;20021;-35
2021/06/19 14:01:05;;;;;;;0.95;0.47;;;;;;;;;;5053597;28;20036;-36
2021/06/19 14:03:33;;;;;;;1.17;0.52;;;;;;;;;;5053760;28;20052;-39
2021/06/19 14:06:00;;;;;;;0.63;0.35;;;;;;;;;;5035639;28;20434;-38
2021/06/19 14:08:27;;;;;;;1.35;0.50;;;;;;;;;;5054056;28;20108;-35
2021/06/19 14:10:54;;;;;;;1.25;0.40;;;;;;;;;;5053897;28;20037;-40
2021/06/19 14:13:21;;;;;;;0.95;0.50;;;;;;;;;;5053351;28;20049;-42
2021/06/19 14:15:48;;;;;;;1.15;0.50;;;;;;;;;;5053959;28;20110;-42
2021/06/19 14:18:16;;;;;;;1.70;0.68;;;;;;;;;;5049406;28;20029;-35
2021/06/19 14:20:43;;;;;;;4.25;0.63;;;;;;;;;;5051134;28;20484;-45
2021/06/19 14:23:10;;;;;;;2.25;0.73;;;;;;;;;;5036817;28;20049;-42
2021/06/19 14:25:37;;;;;;;5.35;0.80;;;;;;;;;;5034028;28;20028;-42
2021/06/19 14:28:07;;;;;;;6.82;0.70;;;;;;;;;;5049843;28;20024;-44
2021/06/19 14:30:36;;;;;;;4.82;0.95;;;;;;;;;;5054423;28;20041;-44
2021/06/19 14:33:04;;;;;;;2.67;0.80;;;;;;;;;;5052474;28;20060;-40
2021/06/19 14:35:31;;;;;;;5.35;0.80;;;;;;;;;;5066778;28;20092;-46
2021/06/19 14:37:58;;;;;;;3.40;0.85;;;;;;;;;;5072608;28;20084;-40
2021/06/19 14:40:27;;;;;;;3.70;0.75;;;;;;;;;;5072674;28;20036;-41
2021/06/19 14:42:55;;;;;;;4.88;0.80;;;;;;;;;;5073834;28;20035;-38
2021/06/19 14:45:22;;;;;;;1.42;0.57;;;;;;;;;;5073390;28;20028;-40
2021/06/19 14:47:49;;;;;;;5.53;0.80;;;;;;;;;;5071785;28;20055;-43
2021/06/19 14:50:17;;;;;;;3.03;0.85;;;;;;;;;;5047696;28;20396;-41
2021/06/19 14:52:45;;;;;;;3.13;0.75;;;;;;;;;;5053695;28;20029;-42
2021/06/19 14:55:12;;;;;;;3.10;0.98;;;;;;;;;;5053365;28;20411;-36